Majsk, Russia
Current Conditions -  °F | °C
As of 9:00 PM on Monday 24 Nov 2014 (Local Time) from USNN Reporting Station
Light Snow Light Snow  
Wind Chill: -18°   Ceiling: 4800
Heat Index: -2°   Visibility: 6mi
Dew Point: -8°   Wind: 9mph
Humidity: 78%   Direction: 230°SW
Pressure: 29.62"   Gusts: NA
Location:  57.78°N, 77.28°E
Report Text: USNN 241400Z 23004MPS 9999 -SN OVC048 M19/M22 Q1003 TEMPO 2000SN RMK QFE747 21451539
Loading
Personal Weather Stations






























Interactive Weather Map New forecast layout! Learn more

10-Day Weather Forecast

Advertisements
Track Severe Weather on mobile